Time;durP1;ratioP1;P1;durP2;ratioP2;P2;SDS_P1;SDS_P2;PMS_P1;PMS_P2;Temp;Humidity;BMP_temperature;BMP_pressure;BME280_temperature;BME280_humidity;BME280_pressure;Samples;Min_cycle;Max_cycle;Signal;HPM_P1;HPM_P2
2024/01/21 00:02:21;;;;;;;11.90;7.90;;;-0.10;99.90;;;;;;5110945;28;20240;-74
2024/01/21 00:04:50;;;;;;;11.67;8.00;;;-0.10;99.90;;;;;;5091925;28;20194;-74
2024/01/21 00:07:16;;;;;;;11.85;8.40;;;-0.10;99.90;;;;;;5110754;28;20620;-74
2024/01/21 00:09:41;;;;;;;13.67;8.73;;;-0.10;99.90;;;;;;5092262;28;20220;-74
2024/01/21 00:12:07;;;;;;;19.20;11.40;;;-0.10;99.90;;;;;;5109404;28;20182;-74
2024/01/21 00:14:35;;;;;;;12.80;9.10;;;-0.10;99.90;;;;;;5110467;28;20206;-75
2024/01/21 00:17:02;;;;;;;13.98;8.65;;;-0.10;99.90;;;;;;5092339;28;20281;-75
2024/01/21 00:19:27;;;;;;;17.45;9.60;;;-0.10;99.90;;;;;;5109218;28;20175;-75
2024/01/21 00:21:53;;;;;;;11.03;7.10;;;-0.20;99.90;;;;;;5109347;28;20233;-74
2024/01/21 00:24:19;;;;;;;14.20;8.43;;;-0.10;99.90;;;;;;5111544;28;20269;-75
2024/01/21 00:26:44;;;;;;;16.17;10.00;;;-0.10;99.90;;;;;;5097144;28;20669;-75
2024/01/21 00:29:10;;;;;;;16.25;10.32;;;0.00;99.90;;;;;;5101502;28;20190;-74
2024/01/21 00:31:36;;;;;;;12.70;8.37;;;-0.10;99.90;;;;;;5072507;28;20168;-75
2024/01/21 00:34:02;;;;;;;14.77;8.40;;;0.00;99.90;;;;;;5093257;28;20210;-75
2024/01/21 00:36:28;;;;;;;14.32;10.25;;;0.00;99.90;;;;;;5105555;28;20187;-74
2024/01/21 00:38:53;;;;;;;16.43;11.00;;;-0.10;99.90;;;;;;5096048;28;20252;-74
2024/01/21 00:41:20;;;;;;;15.30;10.37;;;0.00;99.90;;;;;;5113167;28;20193;-75
2024/01/21 00:43:46;;;;;;;17.58;11.32;;;0.00;99.90;;;;;;5112840;28;20178;-75
2024/01/21 00:46:12;;;;;;;13.23;9.50;;;0.00;99.90;;;;;;5112840;27;20209;-75
2024/01/21 00:48:39;;;;;;;18.90;11.68;;;0.10;99.90;;;;;;5079156;28;20174;-74
2024/01/21 00:51:05;;;;;;;13.80;9.80;;;0.00;99.90;;;;;;5092630;28;20176;-74
2024/01/21 00:53:30;;;;;;;16.40;10.43;;;0.10;99.90;;;;;;5075630;28;20176;-75
2024/01/21 00:55:56;;;;;;;15.67;10.60;;;0.10;99.90;;;;;;5099716;28;20559;-75
2024/01/21 00:58:22;;;;;;;14.47;9.80;;;0.00;99.90;;;;;;5092437;28;20186;-74
2024/01/21 01:00:47;;;;;;;16.20;11.43;;;0.10;99.90;;;;;;5097599;28;20183;-74
2024/01/21 01:03:13;;;;;;;16.47;11.00;;;0.20;99.90;;;;;;5075460;28;20322;-76
2024/01/21 01:05:39;;;;;;;18.05;11.63;;;0.10;99.90;;;;;;5074460;28;20390;-74
2024/01/21 01:08:05;;;;;;;18.20;11.97;;;0.20;99.90;;;;;;5085839;28;20638;-75
2024/01/21 01:10:31;;;;;;;17.50;12.30;;;0.20;99.90;;;;;;5094335;28;20675;-74
2024/01/21 01:12:58;;;;;;;20.57;13.93;;;0.20;99.90;;;;;;5094880;28;20580;-75
2024/01/21 01:15:24;;;;;;;17.85;12.50;;;0.20;99.90;;;;;;5095176;28;20187;-75
2024/01/21 01:17:51;;;;;;;18.07;12.20;;;0.20;99.90;;;;;;5093897;28;20286;-75
2024/01/21 01:20:17;;;;;;;16.30;11.23;;;0.20;99.90;;;;;;5096586;28;20589;-74
2024/01/21 01:22:43;;;;;;;19.57;12.67;;;0.20;99.90;;;;;;5093400;28;20228;-75
2024/01/21 01:25:09;;;;;;;17.97;12.17;;;0.30;99.90;;;;;;5104252;28;20639;-75
2024/01/21 01:27:34;;;;;;;18.20;12.13;;;0.30;99.90;;;;;;5104899;28;20608;-76
2024/01/21 01:30:00;;;;;;;16.73;12.10;;;0.20;99.90;;;;;;5084769;28;20168;-75
2024/01/21 01:32:26;;;;;;;21.80;13.13;;;0.20;99.90;;;;;;5092623;28;20172;-74
2024/01/21 01:34:54;;;;;;;19.10;11.80;;;0.30;99.90;;;;;;5100564;28;20910;-75
2024/01/21 01:37:21;;;;;;;13.02;9.77;;;0.30;99.90;;;;;;5101553;28;20188;-75
2024/01/21 01:39:47;;;;;;;17.75;12.70;;;0.40;99.90;;;;;;5109174;28;20182;-74
2024/01/21 01:42:13;;;;;;;18.50;13.03;;;0.30;99.90;;;;;;5109098;28;20631;-74
2024/01/21 01:44:40;;;;;;;19.63;11.57;;;0.30;99.90;;;;;;5082208;28;20194;-74
2024/01/21 01:47:09;;;;;;;15.45;11.38;;;0.30;99.90;;;;;;5111267;28;20217;-75
2024/01/21 01:49:40;;;;;;;15.45;11.45;;;0.40;99.90;;;;;;5111531;28;20174;-75
2024/01/21 01:52:07;;;;;;;17.17;12.00;;;0.40;99.90;;;;;;5112687;28;20631;-74
2024/01/21 01:54:34;;;;;;;20.30;12.45;;;0.40;99.90;;;;;;5110988;28;20213;-74
2024/01/21 01:57:02;;;;;;;14.40;10.63;;;0.50;99.90;;;;;;5094242;28;20191;-75
2024/01/21 01:59:30;;;;;;;18.75;12.55;;;0.50;99.90;;;;;;5096652;28;20168;-74
2024/01/21 02:01:56;;;;;;;17.05;11.25;;;0.50;99.90;;;;;;5093055;28;20162;-74
2024/01/21 02:04:22;;;;;;;21.10;12.43;;;0.60;99.90;;;;;;5110910;28;20171;-75
2024/01/21 02:06:48;;;;;;;15.15;10.43;;;0.60;99.90;;;;;;5110875;28;20228;-74
2024/01/21 02:09:14;;;;;;;17.30;11.80;;;0.70;99.90;;;;;;5110993;28;20198;-75
2024/01/21 02:11:39;;;;;;;16.27;10.90;;;0.60;99.90;;;;;;5077433;28;20206;-74
2024/01/21 02:14:06;;;;;;;19.15;11.63;;;0.70;99.90;;;;;;5110803;28;20197;-74
2024/01/21 02:16:32;;;;;;;17.50;12.80;;;0.70;99.90;;;;;;5113248;28;20222;-74
2024/01/21 02:18:58;;;;;;;13.40;10.40;;;0.70;99.90;;;;;;5112563;28;20269;-73
2024/01/21 02:21:24;;;;;;;17.80;12.20;;;0.70;99.90;;;;;;5112490;28;20175;-74
2024/01/21 02:23:49;;;;;;;16.07;11.73;;;0.60;99.90;;;;;;5111973;28;20254;-74
2024/01/21 02:26:15;;;;;;;18.03;12.47;;;0.70;99.90;;;;;;5097678;28;20195;-75
2024/01/21 02:28:41;;;;;;;17.37;12.43;;;0.70;99.90;;;;;;5107180;28;20210;-74
2024/01/21 02:31:06;;;;;;;19.37;11.83;;;0.70;99.90;;;;;;5092123;28;20602;-74
2024/01/21 02:33:32;;;;;;;18.33;10.73;;;0.70;99.90;;;;;;5090589;28;20172;-74
2024/01/21 02:35:58;;;;;;;14.37;10.13;;;0.80;99.90;;;;;;5089778;28;20633;-73
2024/01/21 02:38:23;;;;;;;14.90;10.60;;;0.70;99.90;;;;;;5101501;22;20219;-75
2024/01/21 02:40:49;;;;;;;18.33;12.80;;;0.70;99.90;;;;;;5081989;28;20247;-75
2024/01/21 02:43:15;;;;;;;19.80;12.57;;;0.70;99.90;;;;;;5081768;28;20186;-75
2024/01/21 02:45:40;;;;;;;17.33;11.20;;;0.80;99.90;;;;;;5102792;28;20200;-76
2024/01/21 02:48:06;;;;;;;14.23;11.20;;;0.80;99.90;;;;;;5053130;28;20188;-75
2024/01/21 02:50:32;;;;;;;16.80;10.57;;;0.80;99.90;;;;;;5074581;28;20254;-75
2024/01/21 02:52:57;;;;;;;13.80;10.40;;;0.80;99.90;;;;;;5080899;28;20567;-75
2024/01/21 02:55:23;;;;;;;13.47;9.93;;;0.80;99.90;;;;;;5089434;28;20175;-75
2024/01/21 02:57:49;;;;;;;15.50;11.37;;;0.90;99.90;;;;;;5090979;28;20164;-76
2024/01/21 03:00:15;;;;;;;18.80;11.73;;;0.80;99.90;;;;;;5089971;28;20176;-76
2024/01/21 03:02:40;;;;;;;14.53;10.50;;;0.90;99.90;;;;;;5075214;28;20211;-76
2024/01/21 03:05:06;;;;;;;14.50;10.47;;;0.90;99.90;;;;;;5079295;28;21084;-76
2024/01/21 03:07:32;;;;;;;16.30;10.00;;;0.90;99.90;;;;;;5085424;28;20167;-76
2024/01/21 03:09:58;;;;;;;14.33;10.40;;;0.80;99.90;;;;;;5072489;28;20624;-76
2024/01/21 03:12:23;;;;;;;18.67;11.83;;;0.80;99.90;;;;;;5089893;28;20548;-76
2024/01/21 03:14:49;;;;;;;14.47;9.50;;;0.90;99.90;;;;;;5090262;28;20591;-76
2024/01/21 03:17:15;;;;;;;12.80;8.90;;;0.90;99.90;;;;;;5089575;28;20232;-76
2024/01/21 03:19:40;;;;;;;15.13;9.50;;;1.00;99.90;;;;;;5090821;28;20211;-76
2024/01/21 03:22:06;;;;;;;16.80;10.90;;;0.90;99.90;;;;;;5072378;28;20211;-76
2024/01/21 03:24:32;;;;;;;12.83;8.97;;;0.90;99.90;;;;;;5088968;28;20533;-76
2024/01/21 03:26:58;;;;;;;11.60;7.83;;;1.00;99.90;;;;;;5103204;28;20172;-76
2024/01/21 03:29:24;;;;;;;14.17;9.37;;;1.00;99.90;;;;;;5060889;28;20729;-76
2024/01/21 03:31:49;;;;;;;14.25;9.68;;;1.00;99.90;;;;;;5069299;28;20168;-76
2024/01/21 03:34:15;;;;;;;13.80;8.73;;;0.90;99.90;;;;;;5080878;28;20164;-77
2024/01/21 03:36:41;;;;;;;14.17;9.80;;;1.00;99.90;;;;;;5089531;28;20198;-76
2024/01/21 03:39:07;;;;;;;13.70;9.30;;;1.00;99.90;;;;;;5089175;28;20630;-76
2024/01/21 03:41:32;;;;;;;13.25;10.13;;;1.10;99.90;;;;;;5084878;28;20251;-76
2024/01/21 03:43:58;;;;;;;13.37;8.27;;;1.10;99.90;;;;;;5080872;28;20255;-76
2024/01/21 03:46:24;;;;;;;15.30;10.33;;;1.10;99.90;;;;;;5079352;28;20203;-76
2024/01/21 03:48:50;;;;;;;15.18;9.95;;;1.00;99.90;;;;;;5080024;28;20202;-76
2024/01/21 03:51:16;;;;;;;16.20;11.50;;;1.00;99.90;;;;;;5077495;28;20180;-76
2024/01/21 03:53:41;;;;;;;15.33;10.27;;;1.00;99.90;;;;;;5078842;28;20168;-76
2024/01/21 03:56:20;;;;;;;14.27;9.50;;;1.00;99.90;;;;;;5071061;28;20290;-76
2024/01/21 03:58:46;;;;;;;13.63;8.40;;;1.00;99.90;;;;;;5074657;28;20219;-77
2024/01/21 04:01:12;;;;;;;15.30;9.98;;;1.00;99.90;;;;;;5073338;28;20338;-76
2024/01/21 04:03:38;;;;;;;13.33;9.00;;;1.00;99.90;;;;;;5099357;28;20311;-77
2024/01/21 04:06:03;;;;;;;17.53;11.77;;;1.00;99.90;;;;;;5088282;28;20688;-77
2024/01/21 04:08:29;;;;;;;16.13;10.57;;;1.00;99.90;;;;;;5073080;28;20195;-77
2024/01/21 04:10:55;;;;;;;15.30;10.50;;;0.90;99.90;;;;;;5083725;28;20585;-76
2024/01/21 04:13:21;;;;;;;14.47;9.27;;;0.90;99.90;;;;;;5093146;28;20192;-77
2024/01/21 04:15:47;;;;;;;16.73;11.57;;;0.90;99.90;;;;;;5076076;28;20298;-77
2024/01/21 04:18:13;;;;;;;14.50;9.50;;;0.90;99.90;;;;;;5092822;28;20273;-77
2024/01/21 04:20:38;;;;;;;18.98;10.98;;;0.90;99.90;;;;;;5094869;28;20553;-76
2024/01/21 04:23:04;;;;;;;13.63;9.57;;;0.90;99.90;;;;;;5094104;28;20180;-76
2024/01/21 04:25:30;;;;;;;15.13;10.23;;;0.80;99.90;;;;;;5089241;28;20208;-76
2024/01/21 04:27:56;;;;;;;15.77;9.90;;;0.90;99.90;;;;;;5082615;28;20203;-75
2024/01/21 04:30:21;;;;;;;14.67;9.77;;;0.80;99.90;;;;;;5092813;28;20176;-76
2024/01/21 04:32:47;;;;;;;16.37;10.80;;;0.90;99.90;;;;;;5092442;28;20578;-76
2024/01/21 04:35:13;;;;;;;14.18;9.93;;;0.70;99.90;;;;;;5108829;28;20186;-76
2024/01/21 04:37:39;;;;;;;16.50;9.40;;;0.80;99.90;;;;;;5077686;28;20232;-75
2024/01/21 04:40:05;;;;;;;17.47;10.50;;;0.80;99.90;;;;;;5083813;28;20272;-76
2024/01/21 04:42:31;;;;;;;14.10;9.43;;;0.70;99.90;;;;;;5092625;28;20175;-75
2024/01/21 04:44:57;;;;;;;16.77;10.23;;;0.70;99.90;;;;;;5090851;28;20203;-76
2024/01/21 04:47:23;;;;;;;12.47;8.77;;;0.60;99.90;;;;;;5081631;28;20174;-75
2024/01/21 04:49:48;;;;;;;14.63;10.85;;;0.70;99.90;;;;;;5089792;28;20392;-75
2024/01/21 04:52:14;;;;;;;14.87;9.37;;;0.70;99.90;;;;;;5093700;28;20253;-75
2024/01/21 04:54:40;;;;;;;15.23;9.90;;;0.70;99.90;;;;;;5076828;28;20182;-76
2024/01/21 04:57:05;;;;;;;15.07;8.83;;;0.70;99.90;;;;;;5074307;28;20583;-77
2024/01/21 04:59:31;;;;;;;12.43;9.10;;;0.70;99.90;;;;;;5102105;28;20676;-76
2024/01/21 05:01:57;;;;;;;14.03;9.07;;;0.70;99.90;;;;;;5083555;28;20175;-77
2024/01/21 05:04:22;;;;;;;14.90;8.83;;;0.80;99.90;;;;;;5071503;28;21091;-76
2024/01/21 05:06:48;;;;;;;16.17;8.83;;;0.70;99.90;;;;;;5096269;28;20222;-76
2024/01/21 05:09:14;;;;;;;13.93;8.77;;;0.80;99.90;;;;;;5091867;28;20543;-76
2024/01/21 05:11:39;;;;;;;15.53;9.33;;;0.80;99.90;;;;;;5093309;28;20271;-76
2024/01/21 05:14:05;;;;;;;13.30;8.90;;;0.80;99.90;;;;;;5083442;28;20180;-76
2024/01/21 05:16:31;;;;;;;14.10;9.10;;;0.80;99.90;;;;;;5078407;28;20595;-76
2024/01/21 05:18:56;;;;;;;19.00;9.43;;;0.80;99.90;;;;;;5072905;28;20591;-76
2024/01/21 05:21:22;;;;;;;12.33;7.70;;;0.80;99.90;;;;;;5081438;28;20530;-76
2024/01/21 05:23:50;;;;;;;12.27;8.40;;;0.80;99.90;;;;;;5079070;28;20194;-76
2024/01/21 05:26:16;;;;;;;13.32;9.02;;;0.80;99.90;;;;;;5092482;28;20560;-76
2024/01/21 05:28:41;;;;;;;9.93;7.63;;;0.90;99.90;;;;;;5086330;28;20199;-77
2024/01/21 05:31:07;;;;;;;10.90;7.87;;;0.90;99.90;;;;;;5090082;28;20617;-78
2024/01/21 05:33:34;;;;;;;11.10;7.70;;;0.90;99.90;;;;;;5087789;28;20167;-76
2024/01/21 05:36:00;;;;;;;12.00;8.02;;;0.90;99.90;;;;;;5083628;28;21190;-76
2024/01/21 05:38:25;;;;;;;12.17;7.50;;;0.90;99.90;;;;;;5083595;28;20232;-76
2024/01/21 05:40:51;;;;;;;16.23;9.67;;;0.90;99.90;;;;;;5072763;28;20655;-76
2024/01/21 05:43:17;;;;;;;11.70;8.33;;;0.90;99.90;;;;;;5079489;28;20210;-76
2024/01/21 05:45:44;;;;;;;16.33;9.50;;;1.00;99.90;;;;;;5084174;28;20200;-77
2024/01/21 05:48:09;;;;;;;11.30;7.57;;;1.00;99.90;;;;;;5080694;28;20200;-77
2024/01/21 05:50:35;;;;;;;13.40;8.10;;;1.00;99.90;;;;;;5077938;28;20168;-77
2024/01/21 05:53:04;;;;;;;13.43;8.97;;;1.00;99.90;;;;;;5091190;28;20186;-77
2024/01/21 05:55:31;;;;;;;10.70;7.05;;;1.00;99.90;;;;;;5082188;28;20175;-76
2024/01/21 05:57:57;;;;;;;13.40;8.05;;;1.00;99.90;;;;;;5082256;28;20278;-76
2024/01/21 06:00:23;;;;;;;11.60;7.47;;;1.10;99.90;;;;;;5082891;28;20401;-76
2024/01/21 06:02:50;;;;;;;14.00;9.00;;;1.10;99.90;;;;;;5091117;28;20621;-76
2024/01/21 06:05:16;;;;;;;12.98;8.15;;;1.10;99.90;;;;;;5091725;28;20195;-76
2024/01/21 06:07:41;;;;;;;13.80;8.60;;;1.10;99.90;;;;;;5091249;28;20625;-77
2024/01/21 06:10:08;;;;;;;16.40;9.60;;;1.10;99.90;;;;;;5081600;28;20192;-77
2024/01/21 06:12:34;;;;;;;11.52;7.63;;;0.90;99.90;;;;;;5076166;28;20570;-76
2024/01/21 06:14:59;;;;;;;11.38;7.60;;;1.00;99.90;;;;;;5087151;28;20179;-77
2024/01/21 06:17:25;;;;;;;12.57;8.00;;;1.00;99.90;;;;;;5092084;28;20604;-77
2024/01/21 06:19:51;;;;;;;13.10;8.07;;;0.90;99.90;;;;;;5090845;28;20591;-77
2024/01/21 06:22:16;;;;;;;13.23;8.37;;;0.90;99.90;;;;;;5099356;28;20190;-76
2024/01/21 06:24:42;;;;;;;15.03;9.53;;;0.90;99.90;;;;;;5074527;28;20184;-77
2024/01/21 06:27:08;;;;;;;14.20;8.13;;;0.90;99.90;;;;;;5089663;28;20186;-77
2024/01/21 06:29:33;;;;;;;13.67;8.23;;;1.00;99.90;;;;;;5087024;28;20199;-77
2024/01/21 06:31:59;;;;;;;12.90;7.37;;;1.00;99.90;;;;;;5087112;28;20257;-77
2024/01/21 06:34:25;;;;;;;13.40;8.20;;;1.00;99.90;;;;;;5081995;28;20187;-77
2024/01/21 06:36:50;;;;;;;11.37;7.07;;;0.90;99.90;;;;;;5091868;28;20696;-76
2024/01/21 06:39:16;;;;;;;12.43;8.00;;;1.00;99.90;;;;;;5080501;28;20572;-77
2024/01/21 06:41:42;;;;;;;12.23;7.30;;;0.90;99.90;;;;;;5084415;28;20947;-77
2024/01/21 06:44:08;;;;;;;14.70;8.63;;;1.00;99.90;;;;;;5081434;28;20677;-77
2024/01/21 06:46:34;;;;;;;14.40;8.90;;;1.00;99.90;;;;;;5071400;28;20299;-77
2024/01/21 06:49:00;;;;;;;11.20;7.50;;;1.00;99.90;;;;;;5071945;28;20693;-76
2024/01/21 06:51:34;;;;;;;13.38;7.22;;;1.10;99.90;;;;;;5083431;28;21126;-77
2024/01/21 06:54:00;;;;;;;9.80;6.80;;;1.10;99.90;;;;;;5090117;28;20654;-77
2024/01/21 06:56:26;;;;;;;9.88;7.55;;;1.10;99.90;;;;;;5087027;28;20176;-77
2024/01/21 06:58:53;;;;;;;15.30;9.50;;;1.10;99.90;;;;;;5078121;28;20223;-77
2024/01/21 07:01:19;;;;;;;12.85;8.57;;;1.00;99.90;;;;;;5081010;28;20792;-77
2024/01/21 07:03:45;;;;;;;10.40;8.00;;;1.00;99.90;;;;;;5083153;28;20184;-76
2024/01/21 07:06:11;;;;;;;13.93;8.55;;;1.00;99.90;;;;;;5080606;28;20667;-77
2024/01/21 07:08:38;;;;;;;13.65;7.75;;;0.90;99.90;;;;;;5081777;28;20607;-78
2024/01/21 07:11:07;;;;;;;12.13;7.60;;;1.00;99.90;;;;;;5089131;28;20198;-77
2024/01/21 07:13:33;;;;;;;12.50;8.20;;;1.10;99.90;;;;;;5078306;28;20172;-77
2024/01/21 07:15:59;;;;;;;11.73;7.50;;;1.10;99.90;;;;;;5078892;28;20182;-76
2024/01/21 07:18:25;;;;;;;11.53;7.60;;;1.10;99.90;;;;;;5081133;28;20621;-77
2024/01/21 07:20:51;;;;;;;10.67;7.47;;;1.10;99.90;;;;;;5091198;28;20171;-78
2024/01/21 07:23:16;;;;;;;11.37;7.30;;;1.20;99.90;;;;;;5081929;28;20589;-78
2024/01/21 07:25:42;;;;;;;13.63;7.60;;;1.30;99.90;;;;;;5074414;28;21036;-78
2024/01/21 07:28:08;;;;;;;11.60;7.03;;;1.30;99.90;;;;;;5082863;28;20223;-78
2024/01/21 07:30:34;;;;;;;11.70;7.47;;;1.40;99.90;;;;;;5080584;28;20281;-78
2024/01/21 07:32:59;;;;;;;14.10;7.23;;;1.40;99.90;;;;;;5085429;28;20218;-78
2024/01/21 07:35:25;;;;;;;9.53;6.70;;;1.40;99.90;;;;;;5078220;28;20267;-77
2024/01/21 07:37:51;;;;;;;9.57;6.80;;;1.40;99.90;;;;;;5078048;28;20184;-77
2024/01/21 07:40:16;;;;;;;11.47;7.37;;;1.50;99.90;;;;;;5086122;28;20184;-78
2024/01/21 07:42:42;;;;;;;11.57;7.87;;;1.40;99.90;;;;;;5076833;28;20199;-78
2024/01/21 07:45:08;;;;;;;11.27;8.27;;;1.40;99.90;;;;;;5085434;28;20743;-78
2024/01/21 07:47:35;;;;;;;10.57;6.93;;;1.40;99.90;;;;;;5082289;28;20215;-78
2024/01/21 07:50:01;;;;;;;11.70;7.50;;;1.40;99.90;;;;;;5089203;28;20273;-78
2024/01/21 07:52:27;;;;;;;12.40;7.90;;;1.50;99.90;;;;;;5085841;28;20582;-78
2024/01/21 07:54:56;;;;;;;11.57;7.13;;;1.50;99.90;;;;;;5076752;28;20519;-79
2024/01/21 07:57:22;;;;;;;10.90;7.93;;;1.50;99.90;;;;;;5035645;28;20498;-77
2024/01/21 07:59:47;;;;;;;12.80;8.20;;;1.60;99.90;;;;;;5084940;28;20236;-77
2024/01/21 08:02:13;;;;;;;9.30;6.77;;;1.60;99.90;;;;;;5091075;28;20578;-77
2024/01/21 08:04:39;;;;;;;11.60;8.10;;;1.70;99.90;;;;;;5084644;28;20656;-78
2024/01/21 08:07:04;;;;;;;10.50;8.03;;;1.60;99.90;;;;;;5086717;28;21099;-78
2024/01/21 08:09:30;;;;;;;11.07;7.27;;;1.70;99.90;;;;;;5069709;28;20195;-78
2024/01/21 08:11:56;;;;;;;11.03;6.70;;;1.80;99.90;;;;;;5070025;28;20180;-78
2024/01/21 08:14:22;;;;;;;7.60;5.67;;;1.90;99.90;;;;;;5070442;28;20577;-78
2024/01/21 08:16:47;;;;;;;9.13;6.80;;;1.90;99.90;;;;;;5090139;28;20176;-78
2024/01/21 08:19:15;;;;;;;9.47;7.40;;;1.90;99.90;;;;;;5088663;28;20198;-78
2024/01/21 08:21:40;;;;;;;11.52;7.28;;;1.90;99.90;;;;;;5090308;28;20513;-78
2024/01/21 08:24:06;;;;;;;9.93;6.63;;;2.00;99.90;;;;;;5088131;28;20180;-78
2024/01/21 08:26:32;;;;;;;9.80;7.80;;;2.00;99.90;;;;;;5088921;28;20644;-78
2024/01/21 08:28:58;;;;;;;9.10;6.90;;;2.00;99.90;;;;;;5073244;28;20192;-78
2024/01/21 08:31:23;;;;;;;9.07;6.60;;;2.10;99.90;;;;;;5070035;28;20652;-78
2024/01/21 08:33:49;;;;;;;11.00;7.63;;;2.20;99.90;;;;;;5076149;28;20581;-78
2024/01/21 08:36:15;;;;;;;13.93;8.00;;;2.20;99.90;;;;;;5088305;28;20183;-78
2024/01/21 08:38:41;;;;;;;9.57;7.40;;;2.30;99.90;;;;;;5066825;28;21225;-78
2024/01/21 08:41:06;;;;;;;9.63;7.17;;;2.30;99.90;;;;;;5087258;28;20261;-79
2024/01/21 08:43:32;;;;;;;10.07;7.00;;;2.30;99.90;;;;;;5068827;28;20184;-78
2024/01/21 08:45:58;;;;;;;9.98;7.30;;;2.40;99.90;;;;;;5067902;28;20203;-78
2024/01/21 08:48:24;;;;;;;8.30;7.03;;;2.40;99.90;;;;;;5081858;28;20196;-79
2024/01/21 08:50:51;;;;;;;8.43;6.57;;;2.50;99.90;;;;;;5092573;28;20179;-77
2024/01/21 08:53:17;;;;;;;9.17;6.70;;;2.60;99.90;;;;;;5076762;28;20222;-77
2024/01/21 08:55:43;;;;;;;10.45;7.88;;;2.70;99.90;;;;;;5083681;28;20639;-76
2024/01/21 08:58:11;;;;;;;10.20;6.97;;;2.70;99.90;;;;;;5075140;28;20204;-77
2024/01/21 09:00:37;;;;;;;11.10;7.38;;;2.70;99.90;;;;;;5100954;28;20176;-76
2024/01/21 09:03:04;;;;;;;11.90;7.37;;;2.70;99.90;;;;;;5064038;28;20213;-76
2024/01/21 09:05:30;;;;;;;11.77;7.45;;;2.80;99.90;;;;;;5083368;28;20210;-76
2024/01/21 09:07:56;;;;;;;9.80;7.07;;;2.90;99.90;;;;;;5086834;28;20533;-76
2024/01/21 09:10:22;;;;;;;9.23;6.77;;;3.00;99.90;;;;;;5099260;28;20180;-76
2024/01/21 09:12:47;;;;;;;14.00;7.83;;;3.00;99.90;;;;;;5078469;28;20173;-76
2024/01/21 09:15:13;;;;;;;11.53;8.30;;;3.20;99.90;;;;;;5080497;28;20250;-76
2024/01/21 09:17:40;;;;;;;9.97;8.00;;;3.20;99.90;;;;;;5087765;28;20585;-76
2024/01/21 09:20:06;;;;;;;12.25;8.40;;;3.30;99.90;;;;;;5085096;28;20237;-77
2024/01/21 09:22:31;;;;;;;8.68;6.93;;;3.40;99.90;;;;;;5088376;28;20310;-76
2024/01/21 09:24:57;;;;;;;11.80;8.13;;;3.50;99.90;;;;;;5081439;28;20259;-76
2024/01/21 09:27:23;;;;;;;12.37;8.40;;;3.50;99.90;;;;;;5065359;28;20962;-76
2024/01/21 09:29:49;;;;;;;11.77;8.17;;;3.60;99.90;;;;;;5091607;28;20188;-76
2024/01/21 09:32:15;;;;;;;10.27;7.05;;;3.70;99.90;;;;;;5084710;28;20574;-76
2024/01/21 09:34:43;;;;;;;11.27;8.30;;;3.80;99.90;;;;;;5083957;28;20639;-76
2024/01/21 09:37:10;;;;;;;10.70;7.65;;;3.80;99.90;;;;;;5093189;28;20586;-76
2024/01/21 09:39:37;;;;;;;11.50;7.40;;;3.90;99.90;;;;;;5080896;28;20226;-76
2024/01/21 09:42:07;;;;;;;9.85;7.70;;;4.00;99.90;;;;;;5085884;28;20272;-76
2024/01/21 09:44:32;;;;;;;11.52;7.78;;;4.00;99.90;;;;;;5086610;28;20622;-76
2024/01/21 09:47:01;;;;;;;13.30;9.47;;;4.10;99.90;;;;;;5086184;28;20302;-76
2024/01/21 09:49:27;;;;;;;11.25;7.60;;;4.20;99.90;;;;;;5088765;28;20195;-77
2024/01/21 09:51:54;;;;;;;12.70;9.18;;;4.20;99.90;;;;;;5072588;28;20169;-77
2024/01/21 09:54:21;;;;;;;11.73;7.93;;;4.20;99.90;;;;;;5080412;28;20629;-76
2024/01/21 09:56:51;;;;;;;17.73;10.85;;;4.30;99.90;;;;;;5080878;28;20537;-77
2024/01/21 09:59:20;;;;;;;11.20;8.40;;;4.30;99.90;;;;;;5080354;28;20191;-77
2024/01/21 10:01:47;;;;;;;16.33;8.57;;;4.50;99.90;;;;;;5085552;28;20182;-77
2024/01/21 10:04:16;;;;;;;14.63;9.77;;;4.50;99.90;;;;;;5083582;28;20200;-77
2024/01/21 10:06:43;;;;;;;12.40;9.00;;;4.50;99.90;;;;;;5082653;28;20334;-77
2024/01/21 10:09:16;;;;;;;11.90;8.40;;;4.60;99.90;;;;;;5088228;28;20195;-77
2024/01/21 10:11:43;;;;;;;12.18;9.25;;;4.60;99.90;;;;;;5084991;28;20168;-76
2024/01/21 10:14:10;;;;;;;10.77;7.63;;;4.70;99.90;;;;;;5081007;28;20175;-77
2024/01/21 10:16:41;;;;;;;10.15;7.40;;;4.70;99.90;;;;;;5084930;28;20179;-77
2024/01/21 10:19:07;;;;;;;11.95;8.95;;;4.80;99.90;;;;;;5085618;28;20272;-78
2024/01/21 10:21:33;;;;;;;15.57;8.47;;;4.80;99.90;;;;;;5087869;28;20177;-77
2024/01/21 10:24:01;;;;;;;11.90;7.30;;;4.90;99.90;;;;;;5077220;28;20518;-77
2024/01/21 10:26:26;;;;;;;11.77;8.38;;;4.90;99.90;;;;;;5091318;28;20265;-77
2024/01/21 10:28:52;;;;;;;8.17;6.50;;;4.90;99.90;;;;;;5085155;28;20184;-77
2024/01/21 10:31:17;;;;;;;10.63;5.50;;;5.00;99.90;;;;;;5072292;28;20179;-77
2024/01/21 10:33:47;;;;;;;8.70;6.40;;;5.00;99.90;;;;;;5090289;28;20633;-77
2024/01/21 10:36:14;;;;;;;9.63;6.22;;;5.10;99.90;;;;;;5083601;28;20184;-77
2024/01/21 10:38:49;;;;;;;9.52;7.22;;;5.20;99.90;;;;;;5092024;28;20222;-77
2024/01/21 10:41:24;;;;;;;11.13;7.80;;;5.20;99.90;;;;;;5090077;28;20640;-77
2024/01/21 10:43:54;;;;;;;9.70;6.72;;;5.20;99.90;;;;;;5085342;28;20186;-77
2024/01/21 10:46:22;;;;;;;8.93;6.10;;;5.20;99.90;;;;;;5095587;28;20283;-77
2024/01/21 10:48:49;;;;;;;10.55;7.25;;;5.30;99.90;;;;;;5086810;28;20199;-77
2024/01/21 10:51:16;;;;;;;10.05;7.20;;;5.30;99.90;;;;;;5078596;28;20227;-77
2024/01/21 10:53:42;;;;;;;9.38;7.50;;;5.40;99.90;;;;;;5095378;28;20173;-77
2024/01/21 10:56:10;;;;;;;12.07;7.38;;;5.40;99.90;;;;;;5069671;28;20176;-77
2024/01/21 10:58:35;;;;;;;12.85;7.18;;;5.40;99.90;;;;;;5081302;28;20214;-77
2024/01/21 11:01:02;;;;;;;9.07;7.60;;;5.40;99.90;;;;;;5082270;28;20180;-77
2024/01/21 11:03:31;;;;;;;8.32;6.00;;;5.50;99.90;;;;;;5079907;28;20199;-76
2024/01/21 11:06:03;;;;;;;9.48;6.50;;;5.50;99.90;;;;;;5083485;28;20214;-77
2024/01/21 11:08:31;;;;;;;10.50;7.05;;;5.50;99.90;;;;;;5082707;28;20211;-76
2024/01/21 11:11:09;;;;;;;9.13;7.20;;;5.50;99.90;;;;;;5075250;28;20173;-77
2024/01/21 11:13:44;;;;;;;12.10;9.02;;;5.50;99.90;;;;;;5055661;28;20502;-77
2024/01/21 11:16:35;;;;;;;8.95;6.82;;;5.50;99.90;;;;;;5080616;28;20179;-77
2024/01/21 11:19:06;;;;;;;8.23;5.72;;;5.50;99.90;;;;;;5059931;28;20269;-77
2024/01/21 11:21:42;;;;;;;12.10;8.55;;;5.60;99.90;;;;;;5089964;28;20604;-76
2024/01/21 11:24:13;;;;;;;9.50;7.15;;;5.60;99.90;;;;;;5090825;28;20167;-77
2024/01/21 11:26:41;;;;;;;11.98;7.82;;;5.70;99.90;;;;;;5061240;28;20210;-76
2024/01/21 11:29:27;;;;;;;8.48;7.03;;;5.70;99.90;;;;;;5069134;28;20204;-77
2024/01/21 11:32:01;;;;;;;10.10;7.10;;;5.70;99.90;;;;;;5077815;28;20180;-77
2024/01/21 11:34:37;;;;;;;10.98;7.97;;;5.70;99.90;;;;;;5086679;28;20533;-77
2024/01/21 11:37:03;;;;;;;10.32;7.10;;;5.80;99.90;;;;;;5078933;28;20214;-77
2024/01/21 11:39:29;;;;;;;13.27;8.25;;;5.80;99.90;;;;;;5090514;28;20211;-77
2024/01/21 11:41:55;;;;;;;12.07;6.20;;;5.80;99.90;;;;;;5075537;28;20169;-74
2024/01/21 11:44:22;;;;;;;10.18;7.85;;;5.80;99.90;;;;;;5076729;28;21038;-74
2024/01/21 11:46:49;;;;;;;8.88;6.95;;;5.80;99.90;;;;;;5089170;28;20191;-74
2024/01/21 11:49:15;;;;;;;11.40;7.82;;;5.90;99.90;;;;;;5089211;28;20240;-74
2024/01/21 11:51:41;;;;;;;10.75;7.95;;;5.90;99.90;;;;;;5089197;28;20172;-74
2024/01/21 11:54:08;;;;;;;10.00;6.97;;;6.00;99.90;;;;;;5090660;28;20197;-74
2024/01/21 11:56:36;;;;;;;10.13;7.60;;;6.10;99.90;;;;;;5082172;28;20180;-74
2024/01/21 11:59:06;;;;;;;9.65;6.55;;;6.10;99.90;;;;;;5083770;28;20299;-74
2024/01/21 12:01:33;;;;;;;9.80;7.57;;;6.10;99.90;;;;;;5084283;28;20259;-74
2024/01/21 12:04:03;;;;;;;9.48;7.97;;;6.20;99.90;;;;;;5083510;28;20223;-75
2024/01/21 12:06:32;;;;;;;8.98;7.10;;;6.20;99.90;;;;;;5078677;28;20614;-74
2024/01/21 12:09:00;;;;;;;9.18;6.80;;;6.30;99.90;;;;;;5077160;28;20184;-74
2024/01/21 12:11:26;;;;;;;9.25;6.82;;;6.40;99.90;;;;;;5070186;28;20177;-74
2024/01/21 12:13:52;;;;;;;7.13;5.87;;;6.50;99.90;;;;;;5084494;28;20226;-74
2024/01/21 12:16:18;;;;;;;8.15;6.60;;;6.50;99.90;;;;;;5068086;28;20187;-74
2024/01/21 12:18:44;;;;;;;9.43;6.70;;;6.60;99.90;;;;;;5073696;28;20207;-74
2024/01/21 12:21:14;;;;;;;8.52;6.35;;;6.70;99.90;;;;;;5080089;28;21212;-74
2024/01/21 12:23:44;;;;;;;9.65;6.65;;;6.80;99.90;;;;;;5082209;28;20265;-74
2024/01/21 12:26:18;;;;;;;7.30;5.68;;;6.80;99.90;;;;;;5073288;28;20195;-74
2024/01/21 12:28:58;;;;;;;8.55;6.05;;;6.90;99.90;;;;;;5075328;28;20265;-75
2024/01/21 12:31:29;;;;;;;8.10;5.70;;;7.00;99.90;;;;;;5074886;28;20168;-75
2024/01/21 12:33:56;;;;;;;7.10;5.85;;;7.00;99.90;;;;;;5090956;28;20175;-77
2024/01/21 12:36:22;;;;;;;6.72;5.65;;;7.10;99.90;;;;;;5073473;28;20537;-77
2024/01/21 12:38:49;;;;;;;9.43;4.93;;;7.20;99.90;;;;;;5071645;28;20207;-77
2024/01/21 12:41:16;;;;;;;5.78;3.90;;;7.30;99.90;;;;;;5064397;28;20225;-77
2024/01/21 12:43:42;;;;;;;8.40;4.80;;;7.30;99.90;;;;;;5082001;28;20169;-77